• Join FlightAware (Why Join?)
  • Login
  • US Flag 
09:45AM EDT


 

Airport Tracker/Info


-or-


 

Live Flight TrackerFlight Track Log ✈ SBE607 ✈ 02-Mar-2014 ✈ KAPF - KMSY

Flight Track Log - Related Links

Times and Time Zones

All times are in EST time to prevent confusion due to time zone crossing. See the SBE607 flight status page for this flight to view local times or setup timezone preferences in your user account.

Time Position Orientation Groundspeed Altitude Reporting Facility
EST Latitude Longitude Course Direction KTS MPH feet Rate Location/Type
03:03PM 26.1233 -81.9514 North 260 299 9,100  Level Miami Center
03:04PM 26.1114 -82.0481 262° West 302 348 12,100 3,420 Climbing Miami Center
03:05PM 26.1017 -82.1494 264° West 325 374 16,000 3,600 Climbing Miami Center
03:06PM 26.1211 -82.2475 282° West 330 380 19,400 3,360 Climbing Miami Center
03:07PM 26.1648 -82.3833 North  Level FlightAware Approximate
03:07PM 26.1403 -82.3478 282° West 330 380 22,800  Level Miami Center
03:08PM 26.1608 -82.4644 281° West 356 410 23,000 60 Climbing Miami Center
03:09PM 26.1953 -82.5978 286° West 403 464 23,000 420 Level Miami Center
03:10PM 26.2369 -82.7064 293° West 429 494 23,900 1,800 Climbing Miami Center
03:11PM 26.3453 -82.7603 336° Northwest 401 461 26,700 2,460 Climbing Miami Center
03:12PM 26.4653 -82.7894 348° North 400 460 28,900 2,340 Climbing Miami Center
03:13PM 26.5831 -82.8139 349° North 416 479 31,400 2,400 Climbing Miami Center
03:14PM 26.6989 -82.8431 347° North 421 484 33,700 2,100 Climbing Miami Center
03:15PM 26.8147 -82.8675 349° North 426 490 35,600 1,200 Climbing Miami Center
03:16PM 26.9344 -82.8947 349° North 431 496 36,200 960 Climbing Miami Center
03:17PM 27.0544 -82.9242 348° North 431 496 37,600 1,380 Climbing Miami Center
03:18PM 27.1722 -82.9514 348° North 431 496 39,000 1,200 Climbing Miami Center
03:19PM 27.2900 -82.9786 348° North 431 496 40,000 480 Climbing Miami Center
03:20PM 27.4075 -83.0083 347° North 426 490 40,000  Level Miami Center
03:21PM 27.5256 -83.0333 349° North 426 490 40,000  Level Miami Center
03:23PM 27.7367 -83.0847 348° North 425 489 40,000  Level Jacksonville Center
03:24PM 27.8533 -83.1108 349° North 432 497 40,000  Level Jacksonville Center
03:25PM 27.9703 -83.1417 347° North 432 497 40,000  Level Jacksonville Center
03:26PM 28.0828 -83.1772 344° North 427 491 40,000  Level Jacksonville Center
03:27PM 28.1892 -83.2222 340° North 417 480 40,000  Level Jacksonville Center
03:28PM 28.2997 -83.2650 341° North 417 480 40,000  Level Jacksonville Center
03:29PM 28.4100 -83.3128 339° North 417 480 40,000  Level Jacksonville Center
03:30PM 28.5058 -83.3486 342° North 412 474 40,000  Level Jacksonville Center
03:31PM 28.6164 -83.3964 339° North 412 474 40,000  Level Jacksonville Center
03:32PM 28.7269 -83.4419 340° North 412 474 40,000  Level Jacksonville Center
03:33PM 28.8350 -83.4922 338° Northwest 412 474 40,000 -300 Level Jacksonville Center
03:34PM 28.8994 -83.5897 307° West 381 438 39,400 -1,500 Descending Jacksonville Center
03:35PM 28.9425 -83.6969 295° West 373 429 37,000 -2,640 Descending Jacksonville Center
03:36PM 28.9878 -83.8089 295° West 378 435 34,200 -3,000 Descending Jacksonville Center
03:37PM 29.0389 -83.9281 296° West 395 455 31,000 -3,000 Descending Jacksonville Center
03:38PM 29.0858 -84.0497 294° West 413 475 28,200 -2,520 Descending Jacksonville Center
03:39PM 29.1350 -84.1717 295° West 419 482 26,000 -2,100 Descending Jacksonville Center
03:40PM 29.1858 -84.2983 295° West 424 488 24,000 -1,020 Descending Jacksonville Center
03:41PM 29.2364 -84.4250 295° West 424 488 24,000  Level Jacksonville Center
03:42PM 29.2892 -84.5522 295° West 429 494 24,000  Level Jacksonville Center
03:43PM 29.3375 -84.6817 293° West 436 502 24,000  Level Jacksonville Center
03:44PM 29.3606 -84.8178 281° West 441 507 24,000  Level Jacksonville Center
03:45PM 29.3794 -84.9539 279° West 441 507 24,000  Level Jacksonville Center
03:46PM 29.3978 -85.0925 279° West 435 501 24,000  Level Jacksonville Center
03:47PM 29.4186 -85.2267 280° West 435 501 24,000  Level Jacksonville Center
03:48PM 29.4367 -85.3678 278° West 440 506 24,000  Level Jacksonville Center
03:49PM 29.4547 -85.5064 279° West 445 512 24,000  Level Jacksonville Center
03:50PM 29.4728 -85.6431 279° West 445 512 24,000  Level Jacksonville Center
03:51PM 29.4908 -85.7794 279° West 445 512 24,000  Level Jacksonville Center
03:52PM 29.5064 -85.9158 277° West 445 512 24,000  Level Jacksonville Center
03:53PM 29.5261 -86.0500 280° West 440 506 24,000  Level Jacksonville Center
03:54PM 29.5456 -86.1867 279° West 440 506 24,000  Level Jacksonville Center
03:55PM 29.5586 -86.3208 276° West 440 506 24,000  Level Jacksonville Center
03:56PM 29.5778 -86.4672 279° West 430 495 24,000  Level Jacksonville Center
03:57PM 29.5947 -86.5992 278° West 425 489 24,000  Level Jacksonville Center
03:58PM 29.6117 -86.7383 278° West 430 495 24,000  Level Jacksonville Center
03:59PM 29.6303 -86.8728 279° West 430 495 24,000  Level Jacksonville Center
04:00PM 29.6469 -87.0072 278° West 430 495 24,000  Level Jacksonville Center
04:01PM 29.6614 -87.1417 277° West 430 495 24,000  Level Jacksonville Center
04:02PM 29.6797 -87.2789 279° West 430 495 24,000  Level Jacksonville Center
04:03PM 29.6917 -87.4108 276° West 425 489 24,000  Level Jacksonville Center
04:04PM 29.7147 -87.5939 278° West 427 491 24,000  Level Houston Center
04:05PM 29.7292 -87.7272 277° West 426 490 24,000  Level Houston Center
04:06PM 29.7450 -87.8636 278° West 424 488 24,000  Level Houston Center
04:07PM 29.7597 -87.9983 277° West 424 488 24,000  Level Houston Center
04:08PM 29.7756 -88.1319 278° West 423 487 24,000 -840 Level Houston Center
04:09PM 29.7889 -88.2644 277° West 415 478 22,300 -2,580 Descending Houston Center
04:10PM 29.8058 -88.4147 277° West 422 486 18,700 -3,000 Descending Houston Center
04:11PM 29.8194 -88.5439 277° West 413 475 16,100 -2,640 Descending Houston Center
04:12PM 29.8339 -88.6694 278° West 400 460 13,300 -2,520 Descending Houston Center
04:13PM 29.8494 -88.8175 277° West 393 452 11,000 -1,140 Descending Houston Center
04:14PM 29.8619 -88.9397 277° West 386 444 11,000  Level Houston Center
04:15PM 29.8739 -89.0608 277° West 386 444 11,000  Level Houston Center
04:16PM 29.8869 -89.1847 277° West 385 443 11,000  Level Houston Center
04:17PM 29.8969 -89.2833 277° West 390 449 11,000  Level Houston Center
04:17PM 29.9000 -89.3086 278° West 387 445 11,000  Level Houston Center
04:18PM 29.9042 -89.3597 275° West 386 444 11,000  Level Houston Center
04:18PM 29.9133 -89.4303 279° West 386 444 11,000  Level Houston Center
04:19PM 29.9314 -89.4783 293° West 387 445 11,000  Level Houston Center
04:19PM 29.9578 -89.5544 292° West 386 444 11,000 -360 Level Houston Center
04:20PM 29.9733 -89.5986 292° West 384 442 10,600 -1,560 Descending Houston Center
04:20PM 29.9997 -89.6667 294° West 356 410 9,400 -1,980 Descending Houston Center
04:21PM 30.0100 -89.6931 294° West 277 319 8,600 -2,340 Descending Houston Center
04:21PM 30.0317 -89.7439 296° West 284 327 7,000 -2,400 Descending Houston Center
04:22PM 30.0419 -89.7708 294° West 255 293 6,200 -2,460 Descending Houston Center
04:23PM 30.0544 -89.8242 285° West 271 312 4,500 -2,400 Descending Houston Center
04:23PM 30.0569 -89.8447 278° West 259 298 4,000 -540 Descending Houston Center
04:24PM 30.0639 -89.9167 276° West 265 305 4,000  Level Houston Center
04:24PM 30.0661 -89.9308 280° West 268 308 4,000 -600 Level Houston Center
04:25PM 30.0733 -89.9936 278° West 266 306 3,400 -900 Descending Houston Center
04:25PM 30.0753 -90.0144 276° West 263 303 3,100 -420 Descending Houston Center
04:26PM 30.0833 -90.0725 279° West 259 298 3,000 -600 Descending Houston Center
04:26PM 30.0858 -90.0908 279° West 244 281 2,500 -1,260 Descending Houston Center
04:27PM 30.0881 -90.1492 273° West 246 283 1,700 -840 Descending Houston Center
04:27PM 30.0822 -90.1728 254° West 208 239 1,600 -600 Descending Houston Center
04:28PM 30.0656 -90.2194 248° West 218 251 1,100 -600 Descending Houston Center
04:28PM 30.0567 -90.2267 215° Southwest 183 211 1,000 -720 Descending Houston Center
04:29PM 30.0222 -90.2406 199° South 189 217 400 -720 Descending Houston Center
04:29PM 30.0156 -90.2428 196° South 142 163 300 -780 Descending Houston Center